Language: 


Des rapports , des résumés tant et plus, au choix de chacun....


Données statistiques de la station
Quotidien Rapport Novembre 30, 2017 Unités:  Métrique    Anglais   les deux
« Précédent Jour
Suivant Jour »
Quotidien Hebdomadaire Mensuel Annuel Actuel
  Haut: Bas: Moyen:
Température: 3.8 °C 0.0 °C 2.9 °C
Pt de rosée: 4.0 °C 1.0 °C 3 °C
Humidité: 98 % 0 % 98 %
Vitesse du vent: 23.0 km/h 0.0 km/h 6.4 km/h
Rafales: 27.4 km/h - -
Vent:- - West
Pression: 1008.0 hPa 0.0 hPa -
Précipitation: 11.4 mm    
Historical Graphs
 
 
Données statistiques pour Novembre 30, 2017
Heure Température Point de rosée Pression Vent Vitesse du vent Refales Humidité Pluie (taux horaire)
00:01 3.1 °C 3.0 °C 1008.0 hPa North 8.7 km/h 10.1 km/h 98 % 0.3 mm
00:06 3.2 °C 3.0 °C 1008.0 hPa West 4.7 km/h 10.1 km/h 98 % 0.3 mm
00:11 3.2 °C 3.0 °C 1007.0 hPa NW 6.9 km/h 10.1 km/h 98 % 0.0 mm
00:16 3.3 °C 3.0 °C 1007.0 hPa North 5.0 km/h 7.6 km/h 98 % 0.0 mm
00:21 3.3 °C 3.0 °C 1007.0 hPa WSW 1.8 km/h 9.0 km/h 98 % 0.0 mm
00:31 3.4 °C 3.0 °C 1008.0 hPa Calm   9.7 km/h 98 % 0.0 mm
00:36 3.4 °C 3.0 °C 1008.0 hPa West 6.4 km/h 6.4 km/h 98 % 0.0 mm
00:41 3.4 °C 3.0 °C 1008.0 hPa West 6.4 km/h 9.0 km/h 98 % 0.0 mm
00:46 3.4 °C 3.0 °C 1008.0 hPa WNW 4.3 km/h 10.1 km/h 98 % 0.0 mm
00:48 3.4 °C 3.0 °C 1008.0 hPa WNW 5.5 km/h 10.1 km/h 98 % 0.0 mm
00:53 3.4 °C 3.0 °C 1008.0 hPa West 4.7 km/h 10.1 km/h 98 % 0.0 mm
00:58 3.4 °C 3.0 °C 1007.0 hPa Calm   6.1 km/h 98 % 0.0 mm
01:04 3.5 °C 4.0 °C 1007.0 hPa Calm   7.6 km/h 98 % 0.0 mm
01:10 3.5 °C 4.0 °C 1007.0 hPa Calm   6.9 km/h 98 % 0.0 mm
01:19 3.6 °C 4.0 °C 1008.0 hPa Calm   6.9 km/h 98 % 0.3 mm
01:24 3.7 °C 4.0 °C 1008.0 hPa Calm   9.0 km/h 98 % 0.3 mm
01:34 3.7 °C 4.0 °C 1008.0 hPa NNW 4.7 km/h 12.6 km/h 98 % 0.5 mm
01:39 3.7 °C 4.0 °C 1008.0 hPa West 3.2 km/h 12.6 km/h 98 % 0.5 mm
01:44 3.8 °C 4.0 °C 1008.0 hPa NW 9.3 km/h 10.5 km/h 98 % 0.5 mm
01:49 3.8 °C 4.0 °C 1008.0 hPa NNW 9.7 km/h 14.0 km/h 98 % 0.5 mm
01:54 3.7 °C 4.0 °C 1008.0 hPa North 11.9 km/h 16.3 km/h 98 % 0.8 mm
02:05 3.4 °C 3.0 °C 1007.0 hPa North 6.4 km/h 13.0 km/h 98 % 1.5 mm
02:10 3.4 °C 3.0 °C 1007.0 hPa North 6.1 km/h 11.6 km/h 98 % 1.5 mm
02:15 3.4 °C 3.0 °C 1007.0 hPa Calm   11.6 km/h 98 % 1.3 mm
02:20 3.3 °C 3.0 °C 1007.0 hPa Calm   9.7 km/h 98 % 1.3 mm
02:25 3.3 °C 3.0 °C 1007.0 hPa Calm   6.1 km/h 98 % 1.3 mm
02:30 3.2 °C 3.0 °C 1007.0 hPa Calm   6.4 km/h 98 % 1.3 mm
02:35 3.1 °C 3.0 °C 1007.0 hPa Calm   6.4 km/h 98 % 1.3 mm
02:40 3.0 °C 3.0 °C 1007.0 hPa Calm   4.3 km/h 98 % 1.3 mm
02:45 3.0 °C 3.0 °C 1007.0 hPa Calm   1.8 km/h 98 % 1.3 mm
02:50 3.0 °C 3.0 °C 1007.0 hPa Calm     98 % 1.3 mm
02:55 3.0 °C 3.0 °C 1007.0 hPa Calm   4.3 km/h 98 % 1.0 mm
03:02 0.0 °C 3.0 °C 0.0 hPa West 5.5 km/h 6.8 km/h 0 % 0.8 mm
03:12 3.1 °C 3.0 °C 1008.0 hPa WNW 3.5 km/h 7.6 km/h 98 % 1.5 mm
03:17 3.0 °C 3.0 °C 1008.0 hPa Calm   6.4 km/h 98 % 1.8 mm
03:22 3.0 °C 3.0 °C 1008.0 hPa Calm   4.0 km/h 98 % 2.3 mm
03:27 3.0 °C 3.0 °C 1007.0 hPa Calm   4.0 km/h 98 % 2.3 mm
03:32 3.0 °C 3.0 °C 1007.0 hPa Calm     98 % 2.3 mm
03:37 3.0 °C 3.0 °C 1007.0 hPa Calm     98 % 2.3 mm
03:40 3.0 °C 3.0 °C 1007.0 hPa Calm     98 % 2.3 mm
03:45 3.0 °C 3.0 °C 1007.0 hPa Calm     98 % 2.3 mm
03:55 3.1 °C 3.0 °C 1007.0 hPa Calm   5.8 km/h 98 % 2.5 mm
04:05 3.1 °C 3.0 °C 1006.0 hPa Calm   4.7 km/h 98 % 1.8 mm
04:10 3.0 °C 3.0 °C 1006.0 hPa Calm     98 % 1.5 mm
04:15 3.0 °C 3.0 °C 1007.0 hPa Calm     98 % 0.8 mm
04:16 3.0 °C 3.0 °C 1007.0 hPa Calm     98 % 0.8 mm
04:21 3.0 °C 3.0 °C 1007.0 hPa Calm     98 % 0.5 mm
04:26 3.0 °C 3.0 °C 1006.0 hPa WSW 8.7 km/h 9.7 km/h 98 % 0.3 mm
04:31 3.1 °C 3.0 °C 1006.0 hPa West 6.9 km/h 10.1 km/h 98 % 0.3 mm
04:36 3.1 °C 3.0 °C 1006.0 hPa West 9.0 km/h 10.5 km/h 98 % 0.5 mm
04:41 3.2 °C 3.0 °C 1007.0 hPa Calm   10.5 km/h 98 % 0.5 mm
04:52 3.4 °C 3.0 °C 1007.0 hPa Calm   9.7 km/h 98 % 0.3 mm
04:57 3.7 °C 4.0 °C 1007.0 hPa West 9.3 km/h 9.7 km/h 98 % 0.3 mm
05:02 3.8 °C 4.0 °C 1007.0 hPa North 5.0 km/h 14.0 km/h 98 % 0.3 mm
05:12 3.7 °C 4.0 °C 1007.0 hPa WNW 4.0 km/h 15.8 km/h 98 % 0.3 mm
05:17 3.7 °C 4.0 °C 1007.0 hPa West 4.0 km/h 15.8 km/h 98 % 0.3 mm
05:22 3.6 °C 4.0 °C 1007.0 hPa Calm   14.0 km/h 98 % 0.3 mm
05:27 3.6 °C 4.0 °C 1007.0 hPa West 5.5 km/h 14.0 km/h 98 % 0.3 mm
05:37 3.7 °C 4.0 °C 1007.0 hPa North 4.3 km/h 11.1 km/h 98 % 0.0 mm
05:42 3.7 °C 4.0 °C 1007.0 hPa Calm   10.5 km/h 98 % 0.0 mm
05:47 3.7 °C 4.0 °C 1007.0 hPa North 5.0 km/h 9.7 km/h 98 % 0.0 mm
05:52 3.6 °C 4.0 °C 1007.0 hPa WSW 6.1 km/h 13.0 km/h 98 % 0.0 mm
05:57 3.6 °C 4.0 °C 1007.0 hPa NNW 9.3 km/h 14.0 km/h 98 % 0.0 mm
06:02 3.6 °C 4.0 °C 1007.0 hPa West 4.0 km/h 14.0 km/h 98 % 0.0 mm
06:08 3.5 °C 4.0 °C 1007.0 hPa NW 9.0 km/h 13.7 km/h 98 % 0.0 mm
06:19 3.5 °C 4.0 °C 1007.0 hPa West 7.9 km/h 15.8 km/h 98 % 0.0 mm
06:24 3.6 °C 4.0 °C 1007.0 hPa West 5.0 km/h 15.8 km/h 98 % 0.0 mm
06:29 3.6 °C 4.0 °C 1007.0 hPa West 5.0 km/h 11.9 km/h 98 % 0.0 mm
06:39 3.6 °C 4.0 °C 1007.0 hPa NW 5.8 km/h 10.1 km/h 98 % 0.0 mm
06:44 3.6 °C 4.0 °C 1007.0 hPa WNW 10.8 km/h 12.2 km/h 98 % 0.0 mm
06:49 3.7 °C 4.0 °C 1007.0 hPa West 9.3 km/h 16.6 km/h 98 % 0.3 mm
06:54 3.7 °C 4.0 °C 1007.0 hPa West 6.9 km/h 16.6 km/h 98 % 0.3 mm
06:59 3.7 °C 4.0 °C 1007.0 hPa WNW 2.6 km/h 10.8 km/h 98 % 0.3 mm
07:09 3.6 °C 4.0 °C 1007.0 hPa WNW 8.7 km/h 11.9 km/h 98 % 0.3 mm
07:15 3.6 °C 4.0 °C 1007.0 hPa West 9.7 km/h 11.9 km/h 98 % 0.3 mm
07:25 3.4 °C 3.0 °C 1007.0 hPa WNW 9.3 km/h 11.6 km/h 98 % 0.3 mm
07:30 3.4 °C 3.0 °C 1007.0 hPa West 5.0 km/h 12.2 km/h 98 % 0.3 mm
07:35 3.3 °C 3.0 °C 1007.0 hPa WNW 5.8 km/h 12.6 km/h 98 % 0.3 mm
07:50 2.8 °C 3.0 °C 1007.0 hPa WSW 9.0 km/h 11.6 km/h 98 % 0.0 mm
07:56 2.7 °C 3.0 °C 1007.0 hPa West 6.4 km/h 9.7 km/h 98 % 0.0 mm
08:01 2.6 °C 3.0 °C 1007.0 hPa West 7.9 km/h 9.7 km/h 98 % 0.0 mm
08:06 2.6 °C 3.0 °C 1007.0 hPa West 10.5 km/h 10.5 km/h 98 % 0.0 mm
08:11 2.5 °C 3.0 °C 1007.0 hPa West 9.7 km/h 14.3 km/h 98 % 0.0 mm
08:16 2.5 °C 3.0 °C 1007.0 hPa NW 5.8 km/h 14.3 km/h 98 % 0.0 mm
08:31 2.7 °C 3.0 °C 1007.0 hPa West 16.6 km/h 19.1 km/h 98 % 0.0 mm
08:47 2.5 °C 3.0 °C 1007.0 hPa West 9.7 km/h 10.5 km/h 98 % 0.0 mm
08:57 2.3 °C 3.0 °C 1007.0 hPa NW 9.0 km/h 13.7 km/h 98 % 0.0 mm
09:02 2.3 °C 3.0 °C 1007.0 hPa West 12.2 km/h 18.0 km/h 98 % 0.0 mm
09:07 2.3 °C 3.0 °C 1007.0 hPa West 7.9 km/h 18.0 km/h 98 % 0.0 mm
09:12 2.3 °C 3.0 °C 1007.0 hPa West 9.3 km/h 14.3 km/h 98 % 0.0 mm
09:18 2.3 °C 3.0 °C 1007.0 hPa WSW 9.7 km/h 15.4 km/h 98 % 0.0 mm
09:23 2.4 °C 3.0 °C 1007.0 hPa West 10.1 km/h 16.6 km/h 98 % 0.0 mm
09:28 2.4 °C 3.0 °C 1007.0 hPa WNW 10.5 km/h 16.6 km/h 98 % 0.0 mm
09:35 2.7 °C 3.0 °C 1007.0 hPa West 6.4 km/h 15.1 km/h 98 % 0.0 mm
09:45 2.8 °C 3.0 °C 1007.0 hPa West 13.0 km/h 20.9 km/h 98 % 0.0 mm
09:50 2.8 °C 3.0 °C 1007.0 hPa NNE 5.5 km/h 20.9 km/h 98 % 0.0 mm
09:55 2.8 °C 3.0 °C 1007.0 hPa West 10.5 km/h 12.6 km/h 98 % 0.0 mm
10:00 3.0 °C 3.0 °C 1006.0 hPa West 10.1 km/h 16.3 km/h 98 % 0.0 mm
10:10 3.0 °C 3.0 °C 1006.0 hPa West 10.1 km/h 19.5 km/h 98 % 0.0 mm
10:15 3.1 °C 3.0 °C 1007.0 hPa WSW 16.3 km/h 16.9 km/h 98 % 0.0 mm
10:25 3.1 °C 3.0 °C 1007.0 hPa West 10.1 km/h 20.9 km/h 98 % 0.0 mm
10:30 3.1 °C 3.0 °C 1008.0 hPa WNW 14.0 km/h 17.7 km/h 98 % 0.0 mm
10:35 3.1 °C 3.0 °C 1008.0 hPa SW 13.7 km/h 16.9 km/h 98 % 0.0 mm
10:40 3.1 °C 3.0 °C 1007.0 hPa WSW 16.9 km/h 19.1 km/h 98 % 0.0 mm
10:45 3.1 °C 3.0 °C 1007.0 hPa West 16.3 km/h 20.6 km/h 98 % 0.0 mm
10:50 3.1 °C 3.0 °C 1007.0 hPa WNW 13.7 km/h 20.6 km/h 98 % 0.0 mm
10:56 3.1 °C 3.0 °C 1007.0 hPa WSW 13.0 km/h 20.1 km/h 98 % 0.0 mm
11:01 3.2 °C 3.0 °C 1007.0 hPa West 10.5 km/h 20.6 km/h 98 % 0.0 mm
11:06 3.3 °C 3.0 °C 1007.0 hPa West 10.1 km/h 20.6 km/h 98 % 0.0 mm
11:11 3.3 °C 3.0 °C 1006.0 hPa WSW 5.8 km/h 16.3 km/h 98 % 0.0 mm
11:21 3.3 °C 3.0 °C 1006.0 hPa NW 8.7 km/h 21.2 km/h 98 % 0.0 mm
11:26 3.3 °C 3.0 °C 1007.0 hPa WSW 17.7 km/h 21.2 km/h 98 % 0.0 mm
11:36 3.4 °C 3.0 °C 1007.0 hPa WSW 13.0 km/h 20.1 km/h 98 % 0.0 mm
11:41 3.3 °C 3.0 °C 1007.0 hPa West 13.0 km/h 21.2 km/h 98 % 0.0 mm
11:46 3.4 °C 3.0 °C 1007.0 hPa West 23.0 km/h 23.0 km/h 98 % 0.0 mm
11:51 3.4 °C 3.0 °C 1007.0 hPa West 14.0 km/h 23.0 km/h 98 % 0.0 mm
11:56 3.5 °C 4.0 °C 1007.0 hPa West 20.9 km/h 25.3 km/h 98 % 0.0 mm
12:07 3.1 °C 3.0 °C 1007.0 hPa WSW 15.8 km/h 25.3 km/h 98 % 0.3 mm
12:12 3.0 °C 3.0 °C 1006.0 hPa WNW 7.9 km/h 24.5 km/h 98 % 0.3 mm
12:17 2.8 °C 3.0 °C 1006.0 hPa WSW 16.6 km/h 22.7 km/h 98 % 0.3 mm
12:22 2.8 °C 3.0 °C 1006.0 hPa WNW 6.4 km/h 22.4 km/h 98 % 0.3 mm
12:27 2.8 °C 3.0 °C 1006.0 hPa WNW 12.6 km/h 23.0 km/h 98 % 0.3 mm
12:32 3.0 °C 3.0 °C 1006.0 hPa West 19.5 km/h 24.5 km/h 98 % 0.3 mm
12:37 3.0 °C 3.0 °C 1006.0 hPa WSW 17.2 km/h 24.5 km/h 98 % 0.3 mm
12:42 3.1 °C 3.0 °C 1006.0 hPa West 13.7 km/h 20.6 km/h 98 % 0.3 mm
12:47 3.1 °C 3.0 °C 1006.0 hPa West 17.2 km/h 24.5 km/h 98 % 0.3 mm
12:52 3.0 °C 3.0 °C 1006.0 hPa West 16.9 km/h 26.2 km/h 98 % 0.3 mm
12:57 3.0 °C 3.0 °C 1006.0 hPa West 4.3 km/h 27.4 km/h 98 % 0.3 mm
13:02 2.9 °C 3.0 °C 1006.0 hPa WSW 9.3 km/h 27.4 km/h 98 % 0.3 mm
13:07 2.9 °C 3.0 °C 1006.0 hPa West 17.2 km/h 20.6 km/h 98 % 0.0 mm
13:17 2.8 °C 3.0 °C 1006.0 hPa West 16.6 km/h 23.0 km/h 98 % 0.0 mm
13:22 2.9 °C 3.0 °C 1006.0 hPa NW 19.5 km/h 23.0 km/h 98 % 0.0 mm
13:27 3.0 °C 3.0 °C 1005.0 hPa West 17.7 km/h 21.2 km/h 98 % 0.0 mm
13:32 3.1 °C 3.0 °C 1005.0 hPa WSW 9.0 km/h 23.3 km/h 98 % 0.0 mm
13:37 3.1 °C 3.0 °C 1005.0 hPa West 12.6 km/h 23.3 km/h 98 % 0.0 mm
13:42 3.2 °C 3.0 °C 1005.0 hPa West 13.0 km/h 21.2 km/h 98 % 0.0 mm
13:47 3.3 °C 3.0 °C 1005.0 hPa West 12.2 km/h 21.2 km/h 98 % 0.0 mm
13:52 3.4 °C 3.0 °C 1005.0 hPa West 12.2 km/h 21.2 km/h 98 % 0.0 mm
13:57 3.4 °C 3.0 °C 1005.0 hPa West 9.0 km/h 17.7 km/h 98 % 0.0 mm
14:07 3.5 °C 4.0 °C 1005.0 hPa West 5.8 km/h 16.3 km/h 98 % 0.0 mm
14:12 3.5 °C 4.0 °C 1005.0 hPa West 4.0 km/h 14.0 km/h 98 % 0.0 mm
14:17 3.5 °C 4.0 °C 1005.0 hPa West 6.1 km/h 14.0 km/h 98 % 0.0 mm
14:27 3.5 °C 4.0 °C 1005.0 hPa West 4.7 km/h 14.0 km/h 98 % 0.0 mm
14:37 3.6 °C 4.0 °C 1005.0 hPa WNW 6.1 km/h 10.5 km/h 98 % 0.0 mm
14:42 3.7 °C 4.0 °C 1005.0 hPa North 5.8 km/h 15.4 km/h 98 % 0.0 mm
14:47 3.7 °C 4.0 °C 1005.0 hPa NW 9.3 km/h 15.4 km/h 98 % 0.0 mm
14:52 3.7 °C 4.0 °C 1005.0 hPa WNW 7.2 km/h 12.2 km/h 98 % 0.0 mm
14:57 3.7 °C 4.0 °C 1005.0 hPa NNE 4.7 km/h 12.6 km/h 98 % 0.0 mm
15:02 3.7 °C 4.0 °C 1005.0 hPa WNW 4.0 km/h 16.6 km/h 98 % 0.0 mm
15:07 3.7 °C 4.0 °C 1005.0 hPa NW 2.6 km/h 16.6 km/h 98 % 0.0 mm
15:12 3.7 °C 4.0 °C 1005.0 hPa NW 4.7 km/h 16.6 km/h 98 % 0.0 mm
15:17 3.7 °C 4.0 °C 1005.0 hPa NNW 6.4 km/h 16.6 km/h 98 % 0.0 mm
15:22 3.7 °C 4.0 °C 1005.0 hPa West 12.6 km/h 17.7 km/h 98 % 0.0 mm
15:27 3.7 °C 4.0 °C 1005.0 hPa NW 11.9 km/h 17.7 km/h 98 % 0.0 mm
15:32 3.6 °C 4.0 °C 1005.0 hPa NW 5.0 km/h 16.9 km/h 98 % 0.0 mm
15:42 3.6 °C 4.0 °C 1005.0 hPa NNW 9.3 km/h 13.7 km/h 98 % 0.0 mm
15:48 3.6 °C 3.0 °C 1005.0 hPa West 6.9 km/h 13.0 km/h 97 % 0.0 mm
15:53 3.6 °C 3.0 °C 1005.0 hPa West 6.9 km/h 14.0 km/h 97 % 0.0 mm
15:58 3.6 °C 3.0 °C 1005.0 hPa NNW 9.3 km/h 15.4 km/h 97 % 0.0 mm
16:03 3.6 °C 3.0 °C 1005.0 hPa North 8.7 km/h 15.4 km/h 97 % 0.0 mm
16:08 3.6 °C 3.0 °C 1005.0 hPa West 1.4 km/h 9.7 km/h 97 % 0.0 mm
16:13 3.6 °C 3.0 °C 1005.0 hPa WNW 5.8 km/h 11.6 km/h 97 % 0.0 mm
16:18 3.5 °C 3.0 °C 1005.0 hPa West 6.4 km/h 11.6 km/h 97 % 0.0 mm
16:33 3.5 °C 4.0 °C 1005.0 hPa West 8.7 km/h 12.6 km/h 98 % 0.0 mm
16:38 3.5 °C 3.0 °C 1005.0 hPa WNW 5.5 km/h 15.4 km/h 97 % 0.0 mm
16:48 3.5 °C 3.0 °C 1005.0 hPa WSW 4.0 km/h 11.9 km/h 97 % 0.0 mm
16:59 3.4 °C 3.0 °C 1005.0 hPa WSW 9.0 km/h 15.8 km/h 97 % 0.3 mm
17:04 3.3 °C 3.0 °C 1005.0 hPa West 4.7 km/h 15.8 km/h 97 % 0.3 mm
17:09 3.2 °C 3.0 °C 1005.0 hPa West 4.3 km/h 11.9 km/h 97 % 0.3 mm
17:14 3.1 °C 3.0 °C 1005.0 hPa North 4.3 km/h 11.6 km/h 97 % 0.5 mm
17:24 3.1 °C 3.0 °C 1005.0 hPa NNW 10.5 km/h 16.6 km/h 98 % 0.5 mm
17:29 3.1 °C 3.0 °C 1006.0 hPa NNW 6.4 km/h 16.6 km/h 98 % 0.5 mm
17:39 3.0 °C 3.0 °C 1006.0 hPa WNW 12.6 km/h 12.6 km/h 98 % 0.5 mm
17:44 3.0 °C 3.0 °C 1006.0 hPa West 5.0 km/h 17.2 km/h 98 % 0.8 mm
17:49 3.0 °C 3.0 °C 1006.0 hPa WNW 13.7 km/h 17.2 km/h 98 % 0.8 mm
17:59 2.8 °C 3.0 °C 1006.0 hPa West 6.9 km/h 19.8 km/h 98 % 0.5 mm
18:04 2.7 °C 3.0 °C 1006.0 hPa West 11.9 km/h 16.3 km/h 98 % 0.5 mm
18:09 2.5 °C 3.0 °C 1006.0 hPa West 5.8 km/h 16.3 km/h 98 % 0.3 mm
18:14 2.5 °C 3.0 °C 1006.0 hPa WNW 7.9 km/h 12.6 km/h 98 % 0.3 mm
18:19 2.4 °C 3.0 °C 1006.0 hPa SW 9.3 km/h 12.2 km/h 98 % 0.3 mm
18:24 2.3 °C 3.0 °C 1006.0 hPa WNW 9.3 km/h 14.0 km/h 98 % 0.3 mm
18:29 2.3 °C 3.0 °C 1005.0 hPa WSW 9.7 km/h 14.0 km/h 98 % 0.3 mm
18:34 2.3 °C 3.0 °C 1005.0 hPa Calm   14.0 km/h 98 % 0.3 mm
18:39 2.3 °C 3.0 °C 1005.0 hPa WNW 4.0 km/h 10.8 km/h 98 % 0.5 mm
18:44 2.3 °C 3.0 °C 1006.0 hPa Calm   10.5 km/h 98 % 0.3 mm
18:49 2.3 °C 3.0 °C 1006.0 hPa West 5.0 km/h 10.8 km/h 98 % 0.3 mm
18:54 2.4 °C 3.0 °C 1006.0 hPa West 6.1 km/h 11.6 km/h 98 % 0.8 mm
18:59 2.4 °C 3.0 °C 1005.0 hPa West 6.1 km/h 12.2 km/h 98 % 0.8 mm
19:09 2.6 °C 3.0 °C 1005.0 hPa NNW 6.4 km/h 10.1 km/h 98 % 0.8 mm
19:14 2.7 °C 3.0 °C 1005.0 hPa NW 4.3 km/h 10.1 km/h 98 % 0.8 mm
19:19 2.7 °C 3.0 °C 1005.0 hPa WNW 5.5 km/h 14.8 km/h 98 % 0.8 mm
19:24 2.8 °C 3.0 °C 1005.0 hPa NE 4.7 km/h 14.8 km/h 98 % 0.8 mm
19:29 2.9 °C 3.0 °C 1005.0 hPa West 2.1 km/h 12.6 km/h 98 % 1.0 mm
19:34 2.9 °C 3.0 °C 1005.0 hPa SSW 11.9 km/h 11.9 km/h 98 % 1.0 mm
19:39 3.0 °C 3.0 °C 1005.0 hPa NNW 5.8 km/h 11.9 km/h 98 % 0.8 mm
19:44 3.0 °C 3.0 °C 1005.0 hPa WNW 7.9 km/h 10.8 km/h 98 % 0.8 mm
19:59 3.0 °C 3.0 °C 1006.0 hPa North 5.8 km/h 20.6 km/h 98 % 0.5 mm
20:00 3.0 °C 3.0 °C 1006.0 hPa North 3.2 km/h 20.6 km/h 98 % 0.8 mm
20:06 2.8 °C 3.0 °C 1006.0 hPa WSW 3.5 km/h 16.9 km/h 98 % 0.8 mm
20:11 2.8 °C 3.0 °C 1006.0 hPa Calm   9.0 km/h 98 % 1.3 mm
20:16 2.7 °C 3.0 °C 1006.0 hPa Calm   7.9 km/h 98 % 1.3 mm
20:21 2.7 °C 3.0 °C 1006.0 hPa NE 9.7 km/h 11.9 km/h 98 % 1.3 mm
20:31 2.1 °C 2.0 °C 1006.0 hPa NE 1.8 km/h 15.8 km/h 98 % 0.8 mm
20:36 1.9 °C 2.0 °C 1006.0 hPa Calm   14.0 km/h 98 % 0.8 mm
20:41 1.7 °C 2.0 °C 1006.0 hPa Calm   9.7 km/h 98 % 0.8 mm
20:46 1.6 °C 2.0 °C 1006.0 hPa NE 10.1 km/h 11.9 km/h 98 % 0.8 mm
20:56 1.2 °C 1.0 °C 1007.0 hPa North 4.7 km/h 16.3 km/h 98 % 0.8 mm
21:06 1.1 °C 1.0 °C 1007.0 hPa North 8.7 km/h 11.9 km/h 98 % 0.5 mm
21:11 1.0 °C 1.0 °C 1007.0 hPa North 7.9 km/h 14.0 km/h 98 % 0.3 mm
21:16 1.0 °C 1.0 °C 1007.0 hPa North 5.0 km/h 14.0 km/h 98 % 0.3 mm
21:26 0.9 °C 1.0 °C 1007.0 hPa Calm   10.5 km/h 98 % 0.3 mm
21:31 1.0 °C 1.0 °C 1007.0 hPa NNW 3.2 km/h 10.5 km/h 98 % 0.3 mm
21:36 1.0 °C 1.0 °C 1007.0 hPa Calm   10.5 km/h 98 % 0.3 mm
21:41 1.0 °C 1.0 °C 1007.0 hPa Calm   6.1 km/h 98 % 0.3 mm
21:46 1.0 °C 1.0 °C 1007.0 hPa Calm   5.0 km/h 98 % 0.0 mm
21:56 1.0 °C 1.0 °C 1007.0 hPa Calm     98 % 0.3 mm
22:01 1.0 °C 1.0 °C 1007.0 hPa Calm     98 % 0.8 mm
22:06 1.0 °C 1.0 °C 1007.0 hPa Calm     98 % 0.8 mm
22:11 1.0 °C 1.0 °C 1006.0 hPa Calm     98 % 1.0 mm
22:16 1.0 °C 1.0 °C 1006.0 hPa Calm     98 % 1.0 mm
22:31 1.0 °C 1.0 °C 1006.0 hPa North 5.0 km/h 5.0 km/h 98 % 1.5 mm
22:36 1.0 °C 1.0 °C 1006.0 hPa NNW 5.0 km/h 9.7 km/h 98 % 1.5 mm
22:41 1.0 °C 1.0 °C 1007.0 hPa NNW 4.3 km/h 9.7 km/h 98 % 1.5 mm
22:46 0.9 °C 1.0 °C 1007.0 hPa WNW 2.6 km/h 6.9 km/h 98 % 1.5 mm
22:51 0.9 °C 1.0 °C 1007.0 hPa WNW 2.6 km/h 5.5 km/h 98 % 1.5 mm
22:56 0.9 °C 1.0 °C 1007.0 hPa NW 1.4 km/h 5.8 km/h 98 % 1.3 mm
23:02 0.9 °C 1.0 °C 1007.0 hPa Calm   5.8 km/h 98 % 0.8 mm
23:22 0.9 °C 1.0 °C 1007.0 hPa Calm   4.0 km/h 98 % 0.8 mm
23:27 0.9 °C 1.0 °C 1007.0 hPa Calm     98 % 0.5 mm
23:37 0.9 °C 1.0 °C 1007.0 hPa Calm   1.4 km/h 98 % 0.8 mm
23:42 0.9 °C 1.0 °C 1007.0 hPa Calm   1.8 km/h 98 % 1.3 mm
23:47 0.9 °C 1.0 °C 1007.0 hPa Calm   3.5 km/h 98 % 1.3 mm
23:52 0.9 °C 1.0 °C 1007.0 hPa Calm   3.5 km/h 98 % 1.3 mm
23:57 0.9 °C 1.0 °C 1007.0 hPa Calm   1.8 km/h 98 % 1.5 mm
Le Gheer Warneton
Courtoisie de Weather Underground - 2 mb

Mise a jour : 17-12-17 09:02:12
Généré par Cumulus 1.9.4 (1099)